Time;durP1;ratioP1;P1;durP2;ratioP2;P2;SDS_P1;SDS_P2;PMS_P1;PMS_P2;Temp;Humidity;BMP_temperature;BMP_pressure;BME280_temperature;BME280_humidity;BME280_pressure;Samples;Min_cycle;Max_cycle;Signal;HPM_P1;HPM_P2
2022/08/02 00:01:54;;;;;;;2.40;1.35;;;11.20;99.90;;;;;;5088995;28;20372;-81
2022/08/02 00:04:21;;;;;;;2.60;1.40;;;11.50;99.20;;;;;;5089492;28;20452;-81
2022/08/02 00:06:49;;;;;;;3.40;1.70;;;11.60;99.90;;;;;;5089138;28;20376;-82
2022/08/02 00:09:16;;;;;;;3.15;1.60;;;11.60;99.90;;;;;;5089112;28;20450;-83
2022/08/02 00:11:43;;;;;;;2.88;1.30;;;11.90;99.00;;;;;;5090225;28;20427;-83
2022/08/02 00:14:10;;;;;;;2.30;1.33;;;12.10;98.20;;;;;;5091175;28;20452;-82
2022/08/02 00:16:38;;;;;;;3.03;1.27;;;12.20;97.80;;;;;;5092803;28;20373;-83
2022/08/02 00:19:05;;;;;;;1.80;1.20;;;12.40;96.70;;;;;;5093902;28;20371;-82
2022/08/02 00:21:32;;;;;;;2.10;1.08;;;12.60;95.50;;;;;;5094225;28;20874;-82
2022/08/02 00:23:59;;;;;;;1.90;0.90;;;12.70;93.60;;;;;;5093699;28;20372;-82
2022/08/02 00:26:27;;;;;;;2.30;0.85;;;13.00;90.30;;;;;;5093397;28;20378;-82
2022/08/02 00:28:54;;;;;;;1.05;0.70;;;13.20;91.20;;;;;;5093464;28;20377;-82
2022/08/02 00:31:21;;;;;;;1.60;0.80;;;13.40;86.90;;;;;;5093233;28;20376;-82
2022/08/02 00:33:48;;;;;;;2.55;0.95;;;13.40;86.70;;;;;;5092989;28;20759;-83
2022/08/02 00:36:16;;;;;;;2.20;0.80;;;13.50;86.60;;;;;;5093484;28;20432;-82
2022/08/02 00:38:43;;;;;;;1.17;0.60;;;13.50;84.20;;;;;;5093151;28;20404;-83
2022/08/02 00:41:16;;;;;;;1.35;0.70;;;13.70;78.90;;;;;;5093345;28;20376;-83
2022/08/02 00:43:44;;;;;;;1.20;0.80;;;13.70;79.20;;;;;;5093204;28;20392;-83
2022/08/02 00:46:13;;;;;;;1.98;1.00;;;13.80;80.30;;;;;;5093297;28;20360;-83
2022/08/02 00:48:41;;;;;;;1.15;0.73;;;13.90;81.10;;;;;;5092766;28;20875;-82
2022/08/02 00:51:08;;;;;;;1.40;0.60;;;14.10;76.00;;;;;;5092992;28;20430;-83
2022/08/02 00:53:39;;;;;;;1.17;0.50;;;14.20;72.50;;;;;;5093015;28;20875;-85
2022/08/02 00:56:06;;;;;;;2.30;0.80;;;14.30;71.20;;;;;;5093796;28;20906;-82
2022/08/02 00:58:33;;;;;;;3.33;0.70;;;14.30;72.90;;;;;;5093361;28;20455;-85
2022/08/02 01:01:01;;;;;;;0.95;0.60;;;14.30;74.00;;;;;;5092334;28;20383;-85
2022/08/02 01:03:28;;;;;;;1.88;0.70;;;14.30;72.30;;;;;;5092715;28;20395;-83
2022/08/02 01:05:55;;;;;;;1.20;0.50;;;14.30;72.50;;;;;;5091063;28;20376;-86
2022/08/02 01:08:22;;;;;;;1.00;0.60;;;14.50;67.60;;;;;;5092300;28;20417;-85
2022/08/02 01:10:49;;;;;;;1.10;0.50;;;14.60;67.90;;;;;;5092355;28;20412;-84
2022/08/02 01:13:17;;;;;;;1.67;0.50;;;14.60;66.90;;;;;;5092752;28;20852;-82
2022/08/02 01:15:51;;;;;;;3.55;0.60;;;14.60;68.00;;;;;;5093257;28;20901;-84
2022/08/02 01:18:30;;;;;;;1.85;0.60;;;14.70;65.60;;;;;;5090657;28;20392;-83
2022/08/02 01:21:09;;;;;;;1.20;0.50;;;14.80;64.80;;;;;;5092230;28;20367;-81
2022/08/02 01:23:51;;;;;;;1.75;0.70;;;15.00;65.20;;;;;;5092749;28;20364;-81
2022/08/02 01:26:37;;;;;;;0.57;0.40;;;15.10;64.30;;;;;;5092921;28;20384;-88
2022/08/02 01:29:06;;;;;;;1.23;0.55;;;15.50;63.20;;;;;;5091656;28;20365;-83
2022/08/02 01:31:52;;;;;;;0.57;0.50;;;15.70;62.80;;;;;;5093272;28;20372;-83
2022/08/02 01:34:57;;;;;;;2.63;0.60;;;15.70;61.50;;;;;;5094408;28;20438;-85
2022/08/02 01:38:08;;;;;;;2.07;0.60;;;15.70;61.70;;;;;;5092479;28;20397;-84
2022/08/02 01:40:39;;;;;;;1.52;0.60;;;15.70;62.20;;;;;;5010893;28;20383;-83
2022/08/02 01:43:08;;;;;;;2.38;0.63;;;15.80;61.90;;;;;;5010559;28;20559;-83
2022/08/02 01:45:40;;;;;;;1.92;0.70;;;15.90;61.40;;;;;;5011269;28;20371;-80
2022/08/02 01:48:09;;;;;;;1.05;0.70;;;15.90;62.70;;;;;;5015402;28;20442;-85
2022/08/02 01:50:37;;;;;;;2.03;0.82;;;16.10;60.10;;;;;;5020919;28;20382;-81
2022/08/02 01:53:11;;;;;;;1.85;0.60;;;16.00;59.80;;;;;;5027566;28;20390;-84
2022/08/02 01:55:41;;;;;;;2.08;0.73;;;15.90;61.50;;;;;;5033527;28;20403;-82
2022/08/02 01:58:13;;;;;;;1.70;0.70;;;16.10;61.40;;;;;;5032937;28;20379;-83
2022/08/02 02:00:43;;;;;;;1.23;0.60;;;16.30;60.90;;;;;;5013648;28;20383;-86
2022/08/02 02:03:18;;;;;;;1.33;0.60;;;16.40;61.10;;;;;;5011592;28;20390;-83
2022/08/02 02:05:50;;;;;;;1.80;0.60;;;16.40;60.20;;;;;;5011387;28;20383;-85
2022/08/02 02:08:23;;;;;;;1.58;0.60;;;16.30;60.40;;;;;;5010720;28;20367;-82
2022/08/02 02:10:50;;;;;;;1.23;0.60;;;16.40;59.70;;;;;;5010190;28;20387;-83
2022/08/02 02:13:19;;;;;;;1.05;0.60;;;16.30;60.70;;;;;;5010327;28;20379;-86
2022/08/02 02:15:52;;;;;;;1.58;0.80;;;16.40;61.20;;;;;;5020204;28;20934;-82
2022/08/02 02:18:25;;;;;;;1.80;0.80;;;16.50;61.70;;;;;;5092778;28;20384;-83
2022/08/02 02:20:53;;;;;;;1.55;0.80;;;16.60;61.20;;;;;;5091778;28;20469;-89
2022/08/02 02:23:21;;;;;;;1.33;0.70;;;16.70;60.60;;;;;;5092353;28;20452;-84
2022/08/02 02:25:49;;;;;;;1.30;0.70;;;16.60;61.00;;;;;;5092050;28;20380;-81
2022/08/02 02:28:31;;;;;;;1.48;0.80;;;16.60;60.60;;;;;;5091247;28;20425;-83
2022/08/02 02:31:08;;;;;;;1.20;0.70;;;16.50;59.90;;;;;;5091592;28;20369;-82
2022/08/02 02:33:57;;;;;;;1.80;0.63;;;16.40;61.00;;;;;;5091317;28;20860;-82
2022/08/02 02:36:25;;;;;;;2.38;0.70;;;16.50;62.10;;;;;;5090856;28;20405;-83
2022/08/02 02:38:55;;;;;;;1.50;0.90;;;16.70;61.20;;;;;;5090352;28;20375;-83
2022/08/02 02:41:25;;;;;;;2.47;0.90;;;16.80;60.90;;;;;;5083030;28;20387;-87
2022/08/02 02:43:57;;;;;;;2.15;0.80;;;16.90;62.00;;;;;;5091161;28;20396;-83
2022/08/02 02:46:26;;;;;;;1.45;0.80;;;16.80;58.90;;;;;;5091664;28;20732;-80
2022/08/02 02:48:53;;;;;;;1.23;0.70;;;16.80;59.70;;;;;;5096273;28;20383;-83
2022/08/02 02:51:27;;;;;;;1.45;0.80;;;16.90;60.30;;;;;;5094717;28;20387;-87
2022/08/02 02:53:55;;;;;;;2.83;0.80;;;16.90;60.80;;;;;;5091438;28;20429;-84
2022/08/02 02:56:24;;;;;;;1.92;0.60;;;16.90;58.60;;;;;;5090955;28;20930;-83
2022/08/02 02:58:53;;;;;;;1.70;0.70;;;17.00;59.40;;;;;;5090860;28;20366;-82
2022/08/02 03:01:29;;;;;;;1.13;0.87;;;17.10;60.00;;;;;;5090414;28;20463;-83
2022/08/02 03:04:06;;;;;;;1.60;0.70;;;17.20;59.70;;;;;;5090946;28;20356;-83
2022/08/02 03:06:37;;;;;;;1.80;0.70;;;17.30;58.80;;;;;;5090134;28;20451;-84
2022/08/02 03:09:05;;;;;;;1.52;0.60;;;17.30;58.40;;;;;;5090413;28;20365;-83
2022/08/02 03:11:34;;;;;;;1.02;0.70;;;17.40;58.80;;;;;;5089828;28;20456;-85
2022/08/02 03:14:04;;;;;;;1.17;0.80;;;17.70;57.60;;;;;;5090275;28;20418;-85
2022/08/02 03:16:31;;;;;;;2.80;0.80;;;17.80;55.80;;;;;;5090024;28;20396;-85
2022/08/02 03:19:02;;;;;;;0.50;0.40;;;17.70;55.30;;;;;;5090070;28;20725;-83
2022/08/02 03:21:29;;;;;;;1.05;0.50;;;17.80;56.40;;;;;;5089796;28;20383;-82
2022/08/02 03:23:59;;;;;;;1.25;0.57;;;18.00;56.50;;;;;;5089739;28;20365;-83
2022/08/02 03:26:26;;;;;;;0.77;0.60;;;18.20;56.20;;;;;;5089987;28;20453;-83
2022/08/02 03:28:54;;;;;;;2.03;0.55;;;18.50;54.90;;;;;;5089842;28;20384;-85
2022/08/02 03:31:21;;;;;;;2.47;0.77;;;18.70;54.80;;;;;;5089606;28;20379;-84
2022/08/02 03:33:48;;;;;;;1.48;0.60;;;18.70;53.80;;;;;;5090037;28;20470;-86
2022/08/02 03:36:18;;;;;;;1.33;0.70;;;18.90;52.50;;;;;;5089475;28;20400;-84
2022/08/02 03:38:46;;;;;;;1.55;0.70;;;18.70;54.00;;;;;;5093425;28;20353;-84
2022/08/02 03:41:18;;;;;;;1.10;0.63;;;18.70;54.40;;;;;;5104266;28;20460;-84
2022/08/02 03:43:46;;;;;;;2.47;0.63;;;18.80;54.80;;;;;;5089316;28;20384;-84
2022/08/02 03:46:16;;;;;;;1.70;0.70;;;19.20;54.00;;;;;;5089998;28;20368;-84
2022/08/02 03:48:44;;;;;;;1.02;0.60;;;20.10;53.30;;;;;;5090017;28;20451;-83
2022/08/02 03:51:12;;;;;;;1.05;0.60;;;21.20;50.80;;;;;;5089783;28;20456;-84
2022/08/02 03:53:40;;;;;;;1.92;0.60;;;21.30;50.90;;;;;;5088383;28;20368;-86
2022/08/02 03:56:08;;;;;;;1.10;0.60;;;21.80;49.40;;;;;;5089374;28;20425;-83
2022/08/02 03:58:36;;;;;;;1.92;0.60;;;22.70;49.60;;;;;;5087852;28;20403;-84
2022/08/02 04:01:03;;;;;;;1.43;0.60;;;23.90;47.00;;;;;;5089349;28;20856;-86
2022/08/02 04:03:30;;;;;;;1.42;0.77;;;24.70;44.10;;;;;;5097483;28;20433;-84
2022/08/02 04:05:58;;;;;;;3.05;0.60;;;25.40;43.90;;;;;;5093224;28;20467;-84
2022/08/02 04:08:25;;;;;;;1.07;0.60;;;25.80;42.10;;;;;;5089351;28;20384;-85
2022/08/02 04:13:38;;;;;;;1.30;0.60;;;25.00;41.80;;;;;;5090231;28;20806;-86
2022/08/02 04:16:45;;;;;;;1.35;0.47;;;25.10;41.00;;;;;;5096216;28;20414;-85
2022/08/02 04:19:33;;;;;;;0.55;0.40;;;25.10;39.90;;;;;;5011381;28;20378;-87
2022/08/02 04:22:03;;;;;;;1.90;0.40;;;25.20;38.80;;;;;;4990700;28;20375;-86
2022/08/02 04:24:40;;;;;;;0.30;0.30;;;26.00;37.30;;;;;;5006790;28;20836;-85
2022/08/02 04:27:09;;;;;;;1.10;0.40;;;26.30;36.70;;;;;;5006906;28;20470;-84
2022/08/02 04:29:37;;;;;;;0.33;0.30;;;26.00;37.30;;;;;;5007201;28;20383;-84
2022/08/02 04:32:06;;;;;;;1.30;0.40;;;26.10;37.40;;;;;;5007330;28;20893;-84
2022/08/02 04:34:33;;;;;;;2.25;0.40;;;25.60;38.00;;;;;;5007141;28;20384;-84
2022/08/02 04:37:01;;;;;;;0.88;0.52;;;25.90;37.60;;;;;;5007295;28;20481;-86
2022/08/02 04:39:28;;;;;;;0.85;0.40;;;26.10;37.70;;;;;;5007149;28;20379;-85
2022/08/02 04:41:55;;;;;;;1.70;0.30;;;26.40;38.20;;;;;;5006449;28;20406;-86
2022/08/02 04:44:22;;;;;;;0.70;0.40;;;27.20;36.40;;;;;;5006754;28;20391;-85
2022/08/02 04:46:51;;;;;;;0.70;0.40;;;27.70;36.10;;;;;;5006829;28;20391;-86
2022/08/02 04:49:24;;;;;;;0.60;0.40;;;27.80;35.50;;;;;;4990473;28;20442;-85
2022/08/02 04:51:51;;;;;;;0.68;0.45;;;27.10;35.80;;;;;;5007220;28;20411;-85
2022/08/02 04:54:20;;;;;;;1.80;0.40;;;26.90;37.30;;;;;;5014705;28;20761;-84
2022/08/02 04:56:47;;;;;;;0.50;0.33;;;27.40;36.60;;;;;;5090238;28;20892;-83
2022/08/02 04:59:15;;;;;;;0.93;0.50;;;27.50;36.10;;;;;;5091875;28;20380;-81
2022/08/02 05:01:43;;;;;;;2.28;0.50;;;27.60;36.20;;;;;;5094114;28;20399;-86
2022/08/02 05:04:10;;;;;;;1.10;0.40;;;26.90;36.10;;;;;;5093945;28;20447;-85
2022/08/02 05:06:37;;;;;;;1.70;0.50;;;26.40;37.40;;;;;;5097050;28;20376;-84
2022/08/02 05:09:04;;;;;;;0.85;0.40;;;26.50;37.60;;;;;;5096600;28;20383;-84
2022/08/02 05:11:32;;;;;;;0.77;0.50;;;25.60;39.20;;;;;;5095629;28;20433;-84
2022/08/02 05:13:59;;;;;;;0.60;0.30;;;24.70;38.80;;;;;;5096744;28;20379;-87
2022/08/02 05:16:27;;;;;;;2.15;0.57;;;23.80;39.80;;;;;;5090140;28;20404;-85
2022/08/02 05:18:54;;;;;;;0.90;0.40;;;23.30;40.80;;;;;;5095089;28;20484;-85
2022/08/02 05:21:22;;;;;;;1.10;0.40;;;22.50;41.90;;;;;;5096078;28;20388;-84
2022/08/02 05:23:49;;;;;;;0.77;0.50;;;22.10;43.00;;;;;;5095392;28;20399;-84
2022/08/02 05:26:16;;;;;;;0.95;0.43;;;21.60;43.30;;;;;;5091855;28;20434;-84
2022/08/02 05:28:43;;;;;;;1.55;0.50;;;21.10;44.80;;;;;;5091731;28;20848;-85
2022/08/02 05:31:10;;;;;;;2.13;0.47;;;20.70;45.10;;;;;;5091432;28;20425;-84
2022/08/02 05:33:37;;;;;;;0.80;0.50;;;20.70;44.90;;;;;;5091855;28;20368;-85
2022/08/02 05:36:04;;;;;;;1.97;0.50;;;20.50;45.30;;;;;;5091671;28;20486;-86
2022/08/02 05:38:31;;;;;;;1.45;0.50;;;20.30;45.80;;;;;;5091623;28;20373;-85
2022/08/02 05:40:59;;;;;;;0.90;0.50;;;20.30;46.40;;;;;;5091581;28;20429;-85
2022/08/02 05:43:26;;;;;;;0.73;0.40;;;20.30;46.30;;;;;;5091449;28;20385;-84
2022/08/02 05:45:56;;;;;;;1.60;0.40;;;20.00;46.70;;;;;;5091327;28;20381;-84
2022/08/02 05:48:23;;;;;;;1.45;0.30;;;19.70;46.90;;;;;;5090039;28;20391;-81
2022/08/02 05:51:02;;;;;;;0.60;0.40;;;19.40;47.50;;;;;;5091468;28;20876;-82
2022/08/02 05:53:40;;;;;;;1.90;0.40;;;19.30;48.10;;;;;;5091195;28;20364;-82
2022/08/02 05:56:19;;;;;;;0.60;0.43;;;19.30;48.30;;;;;;5093583;28;20473;-81
2022/08/02 05:59:12;;;;;;;1.45;0.50;;;19.20;48.50;;;;;;5094529;28;20442;-81
2022/08/02 06:01:42;;;;;;;4.00;0.70;;;19.00;48.80;;;;;;5092644;28;20371;-88
2022/08/02 06:04:12;;;;;;;4.20;0.80;;;18.90;49.20;;;;;;5091995;28;20744;-82
2022/08/02 06:06:43;;;;;;;1.38;0.80;;;18.70;49.00;;;;;;5090345;28;20827;-79
2022/08/02 06:09:17;;;;;;;1.60;0.93;;;18.60;49.00;;;;;;5090879;28;20372;-82
2022/08/02 06:11:50;;;;;;;1.30;0.80;;;18.50;49.70;;;;;;5091421;28;20369;-82
2022/08/02 06:14:18;;;;;;;3.25;1.15;;;18.40;50.10;;;;;;5091167;28;20438;-83
2022/08/02 06:16:46;;;;;;;1.88;0.90;;;18.30;51.00;;;;;;5090217;28;20465;-85
2022/08/02 06:19:13;;;;;;;2.13;0.80;;;18.20;51.00;;;;;;5091175;28;20463;-82
2022/08/02 06:21:41;;;;;;;1.67;0.60;;;18.10;51.60;;;;;;5090695;28;20385;-81
2022/08/02 06:24:12;;;;;;;1.15;0.50;;;18.00;51.00;;;;;;5090895;28;20396;-85
2022/08/02 06:26:40;;;;;;;2.30;0.60;;;18.00;51.60;;;;;;5090997;28;20375;-80
2022/08/02 06:29:08;;;;;;;2.80;0.60;;;17.90;51.80;;;;;;5090995;28;20372;-81
2022/08/02 06:31:36;;;;;;;0.63;0.47;;;17.80;51.90;;;;;;5089823;28;20381;-82
2022/08/02 06:34:03;;;;;;;1.35;0.50;;;17.70;53.10;;;;;;5090733;28;20368;-81
2022/08/02 06:37:06;;;;;;;1.52;0.52;;;17.60;53.40;;;;;;5091415;28;20396;-79
2022/08/02 06:39:45;;;;;;;1.40;0.60;;;17.50;53.80;;;;;;5093871;28;20365;-80
2022/08/02 06:42:15;;;;;;;3.45;0.70;;;17.30;54.20;;;;;;5090882;28;20463;-79
2022/08/02 06:44:44;;;;;;;0.90;0.40;;;17.20;55.00;;;;;;5090627;28;20420;-80
2022/08/02 06:47:16;;;;;;;2.05;0.52;;;17.10;55.30;;;;;;5091162;28;20385;-81
2022/08/02 06:49:44;;;;;;;2.97;0.70;;;17.00;55.60;;;;;;5090932;28;20372;-79
2022/08/02 06:52:11;;;;;;;2.20;1.00;;;16.90;55.60;;;;;;5093071;28;20396;-82
2022/08/02 06:54:41;;;;;;;2.38;1.10;;;16.60;56.40;;;;;;5091584;28;20373;-86
2022/08/02 06:57:08;;;;;;;1.52;1.08;;;16.40;56.70;;;;;;5093266;28;20474;-88
2022/08/02 06:59:39;;;;;;;1.47;0.90;;;16.20;57.40;;;;;;5092710;28;20365;-84
2022/08/02 07:02:07;;;;;;;1.77;0.80;;;16.10;57.60;;;;;;5090057;28;20384;-84
2022/08/02 07:04:35;;;;;;;1.75;0.70;;;15.90;58.30;;;;;;5092126;28;20412;-86
2022/08/02 07:07:02;;;;;;;1.00;0.70;;;15.80;58.50;;;;;;5092434;28;20815;-85
2022/08/02 07:09:29;;;;;;;1.80;1.10;;;15.50;59.10;;;;;;5092139;28;20376;-83
2022/08/02 07:11:57;;;;;;;4.63;1.40;;;15.10;59.90;;;;;;5090645;28;20388;-84
2022/08/02 07:14:24;;;;;;;2.50;1.50;;;14.80;60.70;;;;;;5089231;28;20376;-82
2022/08/02 07:16:52;;;;;;;1.60;1.10;;;14.60;62.10;;;;;;5089093;28;20464;-82
2022/08/02 07:19:19;;;;;;;1.67;0.98;;;14.40;63.00;;;;;;5088391;28;20461;-82
2022/08/02 07:21:47;;;;;;;1.73;0.82;;;14.10;64.00;;;;;;5088359;28;20376;-81
2022/08/02 07:24:14;;;;;;;4.20;1.00;;;13.90;65.00;;;;;;5089973;28;20475;-82
2022/08/02 07:26:41;;;;;;;3.33;1.33;;;13.70;66.00;;;;;;5090393;28;20376;-80
2022/08/02 07:29:09;;;;;;;4.03;1.80;;;13.30;66.90;;;;;;5089550;28;20376;-84
2022/08/02 07:31:42;;;;;;;4.80;2.40;;;13.40;68.00;;;;;;5090961;28;20377;-84
2022/08/02 07:34:09;;;;;;;5.00;1.80;;;13.20;69.20;;;;;;5090044;28;20380;-82
2022/08/02 07:36:37;;;;;;;4.50;2.08;;;13.10;70.00;;;;;;5090367;28;20472;-82
2022/08/02 07:39:04;;;;;;;3.78;1.75;;;13.00;70.60;;;;;;5090555;28;20377;-82
2022/08/02 07:41:32;;;;;;;4.80;1.88;;;12.90;71.70;;;;;;5090254;28;20377;-82
2022/08/02 07:43:59;;;;;;;7.10;1.88;;;12.80;73.40;;;;;;5090808;28;20864;-82
2022/08/02 07:46:26;;;;;;;6.70;2.13;;;12.70;75.00;;;;;;5091649;28;20381;-84
2022/08/02 07:48:54;;;;;;;5.22;2.22;;;12.60;76.30;;;;;;5091222;28;20370;-84
2022/08/02 07:51:24;;;;;;;4.27;2.07;;;12.50;77.80;;;;;;5089963;28;20369;-82
2022/08/02 07:53:52;;;;;;;4.70;1.85;;;12.40;79.20;;;;;;5089542;28;20373;-82
2022/08/02 07:56:19;;;;;;;4.82;2.00;;;12.30;81.30;;;;;;5089418;28;20816;-85
2022/08/02 07:58:47;;;;;;;4.25;2.00;;;12.80;83.80;;;;;;5090745;28;20383;-84
2022/08/02 08:01:14;;;;;;;4.00;1.70;;;12.10;85.70;;;;;;5091386;28;20380;-82
2022/08/02 08:03:41;;;;;;;4.47;1.90;;;11.90;88.00;;;;;;5091517;28;20809;-83
2022/08/02 08:06:10;;;;;;;4.55;1.92;;;11.90;89.40;;;;;;5091651;28;20384;-83
2022/08/02 08:08:37;;;;;;;5.40;2.08;;;11.80;90.60;;;;;;5090779;28;20392;-83
2022/08/02 08:11:05;;;;;;;4.37;2.70;;;11.70;91.60;;;;;;5092202;28;20410;-83
2022/08/02 08:13:32;;;;;;;3.53;2.38;;;11.60;92.10;;;;;;5091588;28;20372;-82
2022/08/02 08:16:01;;;;;;;3.75;2.65;;;11.60;93.00;;;;;;5089754;28;20475;-81
2022/08/02 08:18:28;;;;;;;3.60;2.67;;;11.50;93.80;;;;;;5089167;28;20407;-83
2022/08/02 08:20:55;;;;;;;5.05;2.90;;;11.40;94.90;;;;;;5089850;28;20392;-82
2022/08/02 08:23:23;;;;;;;6.97;3.10;;;11.30;95.70;;;;;;5090248;28;20364;-81
2022/08/02 08:25:50;;;;;;;6.70;3.53;;;11.30;95.90;;;;;;5090649;28;20381;-81
2022/08/02 08:28:17;;;;;;;6.07;4.47;;;11.30;95.70;;;;;;5072166;28;20376;-82
2022/08/02 08:30:46;;;;;;;7.88;4.63;;;11.30;95.70;;;;;;5089071;28;20882;-81
2022/08/02 08:33:14;;;;;;;8.80;4.95;;;11.40;95.90;;;;;;5089906;28;20372;-81
2022/08/02 08:35:42;;;;;;;8.32;4.30;;;11.40;95.80;;;;;;5090847;28;20404;-81
2022/08/02 08:38:09;;;;;;;7.00;4.55;;;11.30;96.00;;;;;;5090056;28;20365;-82
2022/08/02 08:40:37;;;;;;;6.55;3.92;;;11.30;96.20;;;;;;5093781;28;20835;-81
2022/08/02 08:43:05;;;;;;;6.82;4.22;;;11.30;96.00;;;;;;5094498;28;20911;-82
2022/08/02 08:45:32;;;;;;;5.10;3.63;;;11.30;96.20;;;;;;5095235;28;20763;-81
2022/08/02 08:48:17;;;;;;;6.33;3.90;;;11.40;95.90;;;;;;5095307;28;20425;-82
2022/08/02 08:50:54;;;;;;;5.28;3.75;;;11.30;96.20;;;;;;5096186;28;20765;-79
2022/08/02 08:53:23;;;;;;;8.55;4.20;;;11.30;96.50;;;;;;5094059;28;20844;-83
2022/08/02 08:55:56;;;;;;;7.00;3.85;;;11.30;96.50;;;;;;5094101;28;20948;-82
2022/08/02 08:58:24;;;;;;;6.77;4.30;;;11.20;96.70;;;;;;5094985;28;20870;-83
2022/08/02 09:00:51;;;;;;;6.03;4.30;;;11.20;97.10;;;;;;5094389;28;20388;-81
2022/08/02 09:03:21;;;;;;;8.25;4.25;;;11.00;97.70;;;;;;5092638;28;20368;-85
2022/08/02 09:05:49;;;;;;;8.63;4.20;;;10.90;98.30;;;;;;5098361;28;20403;-81
2022/08/02 09:08:17;;;;;;;6.72;3.22;;;10.90;98.50;;;;;;5103203;28;20390;-83
2022/08/02 09:10:46;;;;;;;6.28;3.38;;;10.90;98.30;;;;;;5101049;28;20390;-82
2022/08/02 09:13:31;;;;;;;5.47;3.40;;;10.90;98.30;;;;;;5101621;28;20402;-81
2022/08/02 09:16:04;;;;;;;5.03;3.00;;;10.90;98.20;;;;;;5101598;28;20426;-80
2022/08/02 09:18:32;;;;;;;5.22;2.80;;;11.00;97.90;;;;;;5096706;28;20403;-81
2022/08/02 09:21:05;;;;;;;5.63;2.97;;;11.00;97.50;;;;;;5096823;28;20798;-82
2022/08/02 09:23:40;;;;;;;4.57;2.97;;;11.00;97.20;;;;;;5095277;28;20401;-79
2022/08/02 09:26:10;;;;;;;7.47;3.00;;;11.10;96.90;;;;;;5095104;28;20397;-83
2022/08/02 09:28:39;;;;;;;4.90;2.75;;;11.10;97.00;;;;;;5093752;28;20417;-81
2022/08/02 09:31:18;;;;;;;6.03;3.90;;;11.00;97.20;;;;;;5093390;28;20378;-80
2022/08/02 09:33:53;;;;;;;9.82;7.60;;;10.90;97.40;;;;;;5093342;28;20840;-80
2022/08/02 09:36:21;;;;;;;7.13;5.47;;;10.90;97.70;;;;;;5092859;28;20876;-82
2022/08/02 09:38:58;;;;;;;7.25;4.75;;;10.80;98.00;;;;;;5093001;28;20392;-81
2022/08/02 09:41:28;;;;;;;7.82;4.47;;;10.80;98.30;;;;;;5091828;28;20377;-82
2022/08/02 09:43:57;;;;;;;7.70;3.42;;;10.90;98.30;;;;;;5092286;28;20433;-80
2022/08/02 09:46:28;;;;;;;7.75;3.20;;;10.80;98.30;;;;;;5092782;28;20378;-81
2022/08/02 09:49:00;;;;;;;6.60;3.20;;;9.50;98.00;;;;;;5093327;28;20372;-81
2022/08/02 09:51:30;;;;;;;6.85;3.30;;;10.90;98.50;;;;;;5090139;28;20859;-82
2022/08/02 09:54:15;;;;;;;7.65;3.50;;;10.80;98.90;;;;;;5090990;28;20381;-82
2022/08/02 09:56:51;;;;;;;7.15;3.30;;;10.70;99.30;;;;;;5092962;28;20392;-82
2022/08/02 09:59:21;;;;;;;7.70;3.33;;;10.60;99.90;;;;;;5095177;28;20397;-80
2022/08/02 10:01:50;;;;;;;7.05;3.45;;;10.50;99.90;;;;;;5092654;28;20368;-82
2022/08/02 10:04:21;;;;;;;6.70;3.55;;;10.40;99.90;;;;;;5091202;28;20436;-82
2022/08/02 10:06:50;;;;;;;14.90;4.32;;;10.50;99.90;;;;;;5091168;28;20430;-81
2022/08/02 10:09:18;;;;;;;9.93;4.90;;;10.40;99.90;;;;;;5090486;28;20728;-81
2022/08/02 10:11:46;;;;;;;12.75;6.20;;;10.40;99.90;;;;;;5073556;28;20391;-80
2022/08/02 10:14:15;;;;;;;7.10;4.70;;;10.40;99.90;;;;;;5092499;28;20476;-81
2022/08/02 10:16:43;;;;;;;6.53;4.60;;;10.40;99.90;;;;;;5091608;28;20410;-83
2022/08/02 10:19:11;;;;;;;9.10;5.45;;;10.30;99.90;;;;;;5091664;28;20419;-81
2022/08/02 10:21:51;;;;;;;7.88;4.90;;;10.30;99.90;;;;;;5091533;28;20384;-82
2022/08/02 10:24:22;;;;;;;7.07;4.60;;;10.40;99.90;;;;;;5092331;28;20368;-82
2022/08/02 10:26:50;;;;;;;7.55;5.00;;;10.30;99.90;;;;;;5091052;28;20360;-81
2022/08/02 10:29:19;;;;;;;7.20;3.88;;;10.30;99.90;;;;;;5090450;28;20380;-80
2022/08/02 10:31:55;;;;;;;6.53;3.60;;;10.40;99.90;;;;;;5092360;28;20455;-82
2022/08/02 10:34:28;;;;;;;4.63;2.58;;;10.40;99.90;;;;;;5090787;28;20364;-81
2022/08/02 10:36:57;;;;;;;6.85;3.20;;;10.50;99.90;;;;;;5090880;28;20756;-82
2022/08/02 10:39:24;;;;;;;6.65;3.92;;;10.60;99.90;;;;;;5090716;28;20372;-80
2022/08/02 10:41:52;;;;;;;9.30;5.03;;;10.60;99.90;;;;;;5090981;28;20384;-83
2022/08/02 10:44:31;;;;;;;10.30;5.82;;;10.60;99.90;;;;;;5090126;28;20396;-82
2022/08/02 10:47:17;;;;;;;11.73;6.90;;;10.60;99.90;;;;;;5090418;28;20477;-82
2022/08/02 10:49:58;;;;;;;8.60;6.30;;;10.60;99.90;;;;;;5090145;28;20412;-82
2022/08/02 10:52:26;;;;;;;7.07;5.03;;;10.50;99.90;;;;;;5090849;28;20885;-82
2022/08/02 10:55:02;;;;;;;7.07;4.82;;;10.50;99.90;;;;;;5091553;28;20393;-81
2022/08/02 10:57:29;;;;;;;8.30;3.97;;;10.50;99.90;;;;;;5094385;28;20377;-82
2022/08/02 11:00:22;;;;;;;5.35;3.40;;;10.50;99.90;;;;;;5092971;28;20408;-82
2022/08/02 11:02:50;;;;;;;5.22;3.17;;;10.50;99.90;;;;;;5008456;28;20783;-80
2022/08/02 11:05:38;;;;;;;5.75;3.35;;;10.50;99.90;;;;;;5009142;28;20379;-81
2022/08/02 11:08:23;;;;;;;5.65;3.10;;;10.40;99.90;;;;;;5008261;28;20395;-80
2022/08/02 11:10:51;;;;;;;4.13;2.90;;;10.50;99.90;;;;;;5007648;28;20445;-82
2022/08/02 11:13:19;;;;;;;4.13;2.90;;;10.60;99.90;;;;;;4991173;28;20375;-81
2022/08/02 11:15:57;;;;;;;4.53;2.50;;;10.70;99.90;;;;;;5007320;28;20413;-81
2022/08/02 11:18:44;;;;;;;3.28;2.17;;;10.80;99.90;;;;;;5007365;28;20383;-82
2022/08/02 11:21:34;;;;;;;2.60;1.90;;;10.90;99.90;;;;;;5008127;28;20459;-82
2022/08/02 11:24:29;;;;;;;6.25;3.63;;;10.90;99.90;;;;;;5007487;28;20433;-80
2022/08/02 11:27:01;;;;;;;2.88;1.80;;;11.00;99.90;;;;;;5007226;28;20376;-82
2022/08/02 11:29:42;;;;;;;4.68;2.10;;;11.10;99.90;;;;;;5007831;28;20379;-81
2022/08/02 11:32:22;;;;;;;3.47;2.30;;;11.10;99.90;;;;;;5007132;28;20391;-82
2022/08/02 11:34:54;;;;;;;3.05;2.30;;;11.10;99.90;;;;;;5007697;28;20379;-81
2022/08/02 11:37:31;;;;;;;3.80;2.30;;;11.10;99.90;;;;;;5007279;28;20397;-82
2022/08/02 11:39:58;;;;;;;3.70;2.17;;;11.10;99.90;;;;;;5054285;28;20459;-81
2022/08/02 11:42:52;;;;;;;5.20;2.25;;;11.20;99.90;;;;;;5089382;28;20445;-81
2022/08/02 11:45:25;;;;;;;3.87;2.20;;;11.30;99.90;;;;;;5086285;28;20483;-81
2022/08/02 11:47:53;;;;;;;4.40;2.25;;;11.20;99.90;;;;;;5088970;28;20448;-80
2022/08/02 11:50:25;;;;;;;5.90;4.22;;;11.20;99.90;;;;;;5089006;28;20404;-83
2022/08/02 11:52:55;;;;;;;4.83;3.00;;;11.20;99.90;;;;;;5089236;28;20392;-80
2022/08/02 11:55:29;;;;;;;4.72;2.28;;;11.30;99.90;;;;;;5088815;28;20380;-81
2022/08/02 11:58:02;;;;;;;2.35;2.10;;;11.30;99.90;;;;;;5089319;28;20430;-82
2022/08/02 12:00:29;;;;;;;4.78;2.90;;;11.30;99.90;;;;;;5089124;28;20375;-81
2022/08/02 12:02:56;;;;;;;2.92;2.20;;;11.20;99.90;;;;;;5089382;28;20771;-81
2022/08/02 12:05:25;;;;;;;4.65;3.10;;;11.10;99.90;;;;;;5088793;28;20375;-81
2022/08/02 12:07:52;;;;;;;5.05;2.70;;;11.10;99.90;;;;;;5088736;28;20423;-81
2022/08/02 12:10:22;;;;;;;3.42;2.35;;;11.00;99.90;;;;;;5088679;28;20397;-81
2022/08/02 12:12:51;;;;;;;3.65;2.08;;;10.90;99.90;;;;;;5088393;28;20389;-82
2022/08/02 12:15:45;;;;;;;4.35;2.10;;;11.00;99.90;;;;;;5088948;28;20476;-81
2022/08/02 12:21:24;;;;;;;4.78;1.95;;;11.30;99.90;;;;;;5089280;28;20373;-83
2022/08/02 12:23:51;;;;;;;3.60;2.00;;;11.40;99.90;;;;;;5088718;28;20423;-81
2022/08/02 12:26:19;;;;;;;3.40;1.70;;;11.50;99.90;;;;;;5088499;28;20375;-82
2022/08/02 12:28:46;;;;;;;7.63;6.57;;;11.60;99.90;;;;;;5088424;28;20368;-81
2022/08/02 12:31:13;;;;;;;5.13;4.40;;;11.60;99.90;;;;;;5088660;28;20817;-81
2022/08/02 12:33:54;;;;;;;6.57;3.40;;;11.40;99.90;;;;;;5088441;28;20404;-81
2022/08/02 12:36:28;;;;;;;11.20;7.18;;;11.20;99.90;;;;;;5088484;28;20409;-82
2022/08/02 12:39:00;;;;;;;10.68;9.05;;;11.10;99.90;;;;;;5088400;28;20406;-80
2022/08/02 12:41:29;;;;;;;7.18;5.10;;;10.80;99.90;;;;;;5088563;28;20381;-81
2022/08/02 12:43:57;;;;;;;6.75;5.18;;;10.70;99.90;;;;;;5088131;28;20427;-81
2022/08/02 12:46:24;;;;;;;8.55;5.50;;;10.50;99.90;;;;;;5088778;28;20463;-81
2022/08/02 12:48:52;;;;;;;12.02;7.43;;;10.50;99.90;;;;;;5088306;28;20373;-81
2022/08/02 12:51:38;;;;;;;11.63;6.50;;;10.40;99.90;;;;;;5088548;28;20376;-82
2022/08/02 12:54:16;;;;;;;9.18;5.70;;;10.30;99.90;;;;;;5088374;28;20369;-82
2022/08/02 12:56:44;;;;;;;8.45;5.00;;;10.20;99.90;;;;;;5088183;28;20389;-81
2022/08/02 12:59:11;;;;;;;6.43;4.20;;;10.20;99.90;;;;;;5088151;28;20754;-82
2022/08/02 13:01:38;;;;;;;5.75;3.88;;;10.10;99.90;;;;;;5088187;28;20431;-82
2022/08/02 13:04:06;;;;;;;7.00;3.90;;;10.00;99.90;;;;;;5086851;28;20713;-82
2022/08/02 13:06:34;;;;;;;7.18;4.07;;;9.90;99.90;;;;;;5088198;28;20383;-82
2022/08/02 13:09:11;;;;;;;10.85;4.97;;;9.90;99.90;;;;;;5088392;28;20464;-82
2022/08/02 13:11:38;;;;;;;7.75;4.40;;;9.80;99.90;;;;;;5087627;28;20402;-81